createdAt,value
2018-06-04T00:00:59.545Z,16.09
2018-06-04T00:01:59.724Z,16.10
2018-06-04T00:02:59.924Z,16.10
2018-06-04T00:04:00.139Z,16.02
2018-06-04T00:05:00.306Z,16.05
2018-06-04T00:06:00.481Z,16.08
2018-06-04T00:07:00.686Z,16.10
2018-06-04T00:08:00.852Z,16.06
2018-06-04T00:09:01.035Z,15.96
2018-06-04T00:10:01.252Z,15.96
2018-06-04T00:11:01.394Z,15.93
2018-06-04T00:12:01.575Z,15.95
2018-06-04T00:13:01.769Z,15.95
2018-06-04T00:14:01.930Z,15.91
2018-06-04T00:15:02.149Z,15.84
2018-06-04T00:16:02.359Z,15.81
2018-06-04T00:17:02.528Z,15.90
2018-06-04T00:18:02.708Z,15.78
2018-06-04T00:19:02.930Z,15.78
2018-06-04T00:20:03.116Z,15.78
2018-06-04T00:21:03.267Z,15.87
2018-06-04T00:22:03.476Z,15.80
2018-06-04T00:23:03.630Z,15.88
2018-06-04T00:24:03.811Z,15.87
2018-06-04T00:25:03.989Z,15.84
2018-06-04T00:26:04.171Z,15.91
2018-06-04T00:27:04.359Z,15.93
2018-06-04T00:28:04.541Z,15.84
2018-06-04T00:29:04.749Z,15.93
2018-06-04T00:30:04.943Z,15.87
2018-06-04T00:31:05.180Z,15.83
2018-06-04T00:32:05.306Z,15.83
2018-06-04T00:33:06.426Z,15.81
2018-06-04T00:34:05.755Z,15.85
2018-06-04T00:35:05.924Z,15.84
2018-06-04T00:36:06.136Z,15.84
2018-06-04T00:37:06.314Z,15.84
2018-06-04T00:38:06.494Z,15.84
2018-06-04T00:39:06.649Z,15.87
2018-06-04T00:40:06.842Z,15.80
2018-06-04T00:41:07.076Z,15.80
2018-06-04T00:42:07.225Z,15.73
2018-06-04T00:43:07.378Z,15.73
2018-06-04T00:44:07.591Z,15.73
2018-06-04T00:45:07.734Z,15.69
2018-06-04T00:46:07.929Z,15.65
2018-06-04T00:47:08.134Z,15.66
2018-06-04T00:48:08.288Z,15.63
2018-06-04T00:49:08.455Z,15.72
2018-06-04T00:50:08.683Z,15.72
2018-06-04T00:51:08.849Z,15.63
2018-06-04T00:52:09.027Z,15.63
2018-06-04T00:53:09.225Z,15.54
2018-06-04T00:54:09.351Z,15.54
2018-06-04T00:55:09.537Z,15.63
2018-06-04T00:56:09.725Z,15.63
2018-06-04T00:57:09.964Z,15.60
2018-06-04T00:58:10.098Z,15.58
2018-06-04T00:59:10.273Z,15.59
2018-06-04T01:00:10.477Z,15.51
2018-06-04T01:01:10.649Z,15.52
2018-06-04T01:02:10.850Z,15.52
2018-06-04T01:03:10.998Z,15.51
2018-06-04T01:04:11.360Z,15.44
2018-06-04T01:05:11.455Z,15.45
2018-06-04T01:06:11.644Z,15.47
2018-06-04T01:07:11.810Z,15.45
2018-06-04T01:08:12.019Z,15.47
2018-06-04T01:09:12.198Z,15.33
2018-06-04T01:10:12.498Z,15.38
2018-06-04T01:11:12.550Z,15.36
2018-06-04T01:12:12.726Z,15.35
2018-06-04T01:13:12.911Z,15.32
2018-06-04T01:14:13.073Z,15.35
2018-06-04T01:15:15.059Z,15.25
2018-06-04T01:16:13.418Z,15.27
2018-06-04T01:17:13.634Z,15.27
2018-06-04T01:18:13.775Z,15.30
2018-06-04T01:19:13.969Z,15.29
2018-06-04T01:20:14.160Z,15.27
2018-06-04T01:21:14.355Z,15.23
2018-06-04T01:22:14.531Z,15.33
2018-06-04T01:23:14.715Z,15.40
2018-06-04T01:24:14.919Z,15.30
2018-06-04T01:25:15.095Z,15.36
2018-06-04T01:26:15.280Z,15.29
2018-06-04T01:27:15.449Z,15.29
2018-06-04T01:28:15.644Z,15.30
2018-06-04T01:29:15.816Z,15.40
2018-06-04T01:30:16.010Z,15.32
2018-06-04T01:31:16.207Z,15.38
2018-06-04T01:32:16.400Z,15.30
2018-06-04T01:33:16.575Z,15.36
2018-06-04T01:34:16.725Z,15.27
2018-06-04T01:35:16.930Z,15.32
2018-06-04T01:36:17.104Z,15.30
2018-06-04T01:37:17.296Z,15.29
2018-06-04T01:38:17.532Z,15.40
2018-06-04T01:39:17.676Z,15.32
2018-06-04T01:40:17.862Z,15.35
2018-06-04T01:41:18.040Z,15.36
2018-06-04T01:42:18.229Z,15.23
2018-06-04T01:43:18.439Z,15.19
2018-06-04T01:44:18.592Z,15.25
2018-06-04T01:45:18.773Z,15.12
2018-06-04T01:46:18.955Z,15.19
2018-06-04T01:47:19.153Z,15.10
2018-06-04T01:48:19.328Z,15.10
2018-06-04T01:49:19.525Z,15.15
2018-06-04T01:50:19.689Z,15.14
2018-06-04T01:51:19.879Z,15.03
2018-06-04T01:52:20.066Z,15.10
2018-06-04T01:53:20.279Z,15.14
2018-06-04T01:54:20.439Z,15.11
2018-06-04T01:55:20.641Z,15.10
2018-06-04T01:56:20.794Z,15.10
2018-06-04T01:57:20.978Z,15.11
2018-06-04T01:58:21.216Z,15.07
2018-06-04T01:59:21.335Z,14.99
2018-06-04T02:00:21.519Z,14.99
2018-06-04T02:01:21.700Z,14.95
2018-06-04T02:02:21.924Z,14.97
2018-06-04T02:03:22.096Z,14.92
2018-06-04T02:04:22.269Z,14.97
2018-06-04T02:05:22.441Z,14.97
2018-06-04T02:06:22.624Z,14.97
2018-06-04T02:07:22.823Z,14.99
2018-06-04T02:08:23.021Z,14.96
2018-06-04T02:09:23.184Z,15.04
2018-06-04T02:10:23.329Z,14.96
2018-06-04T02:11:24.520Z,14.89
2018-06-04T02:12:23.677Z,14.97
2018-06-04T02:13:23.859Z,14.89
2018-06-04T02:14:24.099Z,14.85
2018-06-04T02:15:24.231Z,14.90
2018-06-04T02:16:24.421Z,14.90
2018-06-04T02:17:24.613Z,14.90
2018-06-04T02:18:24.799Z,14.89
2018-06-04T02:19:25.013Z,14.87
2018-06-04T02:20:25.149Z,14.89
2018-06-04T02:21:25.325Z,14.83
2018-06-04T02:22:25.518Z,14.85
2018-06-04T02:23:25.704Z,14.77
2018-06-04T02:24:25.917Z,14.83
2018-06-04T02:25:26.076Z,14.89
2018-06-04T02:26:26.282Z,14.77
2018-06-04T02:27:26.462Z,14.70
2018-06-04T02:28:26.603Z,14.79
2018-06-04T02:29:26.789Z,14.73
2018-06-04T02:30:26.970Z,14.74
2018-06-04T02:31:27.201Z,14.63
2018-06-04T02:32:27.348Z,14.66
2018-06-04T02:33:27.581Z,14.69
2018-06-04T02:34:27.724Z,14.70
2018-06-04T02:35:27.912Z,14.73
2018-06-04T02:36:28.077Z,14.77
2018-06-04T02:37:28.287Z,14.69
2018-06-04T02:38:28.470Z,14.77
2018-06-04T02:39:28.629Z,14.71
2018-06-04T02:40:28.890Z,14.74
2018-06-04T02:41:29.036Z,14.73
2018-06-04T02:42:29.158Z,14.66
2018-06-04T02:43:29.341Z,14.71
2018-06-04T02:44:29.536Z,14.78
2018-06-04T02:45:29.708Z,14.59
2018-06-04T02:46:29.880Z,14.77
2018-06-04T02:47:30.138Z,14.73
2018-06-04T02:48:30.239Z,14.71
2018-06-04T02:49:30.465Z,14.82
2018-06-04T02:50:30.637Z,14.77
2018-06-04T02:51:30.830Z,14.73
2018-06-04T02:52:30.958Z,14.69
2018-06-04T02:53:31.167Z,14.74
2018-06-04T02:54:31.312Z,14.77
2018-06-04T02:55:31.510Z,14.70
2018-06-04T02:56:31.688Z,14.79
2018-06-04T02:57:31.863Z,14.71
2018-06-04T02:58:32.066Z,14.83
2018-06-04T02:59:32.236Z,14.74
2018-06-04T03:00:32.410Z,14.73
2018-06-04T03:01:32.616Z,14.73
2018-06-04T03:02:32.816Z,14.78
2018-06-04T03:03:33.033Z,14.77
2018-06-04T03:04:33.177Z,14.73
2018-06-04T03:05:33.342Z,14.66
2018-06-04T03:06:33.529Z,14.74
2018-06-04T03:07:33.701Z,14.77
2018-06-04T03:08:33.878Z,14.74
2018-06-04T03:09:34.056Z,14.74
2018-06-04T03:10:34.285Z,14.66
2018-06-04T03:11:34.413Z,14.64
2018-06-04T03:12:34.603Z,14.58
2018-06-04T03:13:34.796Z,14.67
2018-06-04T03:14:34.972Z,14.59
2018-06-04T03:15:35.149Z,14.61
2018-06-04T03:16:35.329Z,14.58
2018-06-04T03:17:35.505Z,14.56
2018-06-04T03:18:35.714Z,14.53
2018-06-04T03:19:35.866Z,14.49
2018-06-04T03:20:36.049Z,14.56
2018-06-04T03:21:36.219Z,14.64
2018-06-04T03:22:36.404Z,14.64
2018-06-04T03:23:36.607Z,14.58
2018-06-04T03:24:36.775Z,14.56
2018-06-04T03:25:36.965Z,14.64
2018-06-04T03:26:37.210Z,14.58
2018-06-04T03:27:37.323Z,14.64
2018-06-04T03:28:37.545Z,14.59
2018-06-04T03:29:37.685Z,14.71
2018-06-04T03:30:37.931Z,14.67
2018-06-04T03:31:38.084Z,14.67
2018-06-04T03:32:38.231Z,14.64
2018-06-04T03:33:38.414Z,14.66
2018-06-04T03:34:38.624Z,14.69
2018-06-04T03:35:38.784Z,14.59
2018-06-04T03:36:38.974Z,14.56
2018-06-04T03:37:39.151Z,14.59
2018-06-04T03:38:39.354Z,14.66
2018-06-04T03:39:39.507Z,14.64
2018-06-04T03:40:39.747Z,14.59
2018-06-04T03:41:39.919Z,14.61
2018-06-04T03:42:40.084Z,14.49
2018-06-04T03:43:40.266Z,14.48
2018-06-04T03:44:40.445Z,14.53
2018-06-04T03:45:40.638Z,14.48
2018-06-04T03:46:40.843Z,14.45
2018-06-04T03:47:40.980Z,14.49
2018-06-04T03:48:41.157Z,14.55
2018-06-04T03:49:41.338Z,14.53
2018-06-04T03:50:41.516Z,14.49
2018-06-04T03:51:41.714Z,14.46
2018-06-04T03:52:41.871Z,14.52
2018-06-04T03:53:42.063Z,14.53
2018-06-04T03:54:42.278Z,14.61
2018-06-04T03:55:42.468Z,14.74
2018-06-04T03:56:42.638Z,14.66
2018-06-04T03:57:42.776Z,14.78
2018-06-04T03:58:42.966Z,14.77
2018-06-04T03:59:43.132Z,14.89
2018-06-04T04:00:43.336Z,14.78
2018-06-04T04:01:43.575Z,14.77
2018-06-04T04:02:43.665Z,14.85
2018-06-04T04:03:43.853Z,14.92
2018-06-04T04:04:44.035Z,14.93
2018-06-04T04:05:44.202Z,14.95
2018-06-04T04:06:44.442Z,14.78
2018-06-04T04:07:44.601Z,14.82
2018-06-04T04:08:44.768Z,14.83
2018-06-04T04:09:44.955Z,14.77
2018-06-04T04:10:45.138Z,14.86
2018-06-04T04:11:45.324Z,14.78
2018-06-04T04:12:45.479Z,14.86
2018-06-04T04:13:45.688Z,14.95
2018-06-04T04:14:45.852Z,14.89
2018-06-04T04:15:46.099Z,14.95
2018-06-04T04:16:46.232Z,15.04
2018-06-04T04:17:46.412Z,14.96
2018-06-04T04:18:46.617Z,14.99
2018-06-04T04:19:46.806Z,15.04
2018-06-04T04:20:46.983Z,15.17
2018-06-04T04:21:47.166Z,15.27
2018-06-04T04:22:47.336Z,15.30
2018-06-04T04:23:47.500Z,15.35
2018-06-04T04:24:47.691Z,15.33
2018-06-04T04:25:47.877Z,15.41
2018-06-04T04:26:48.073Z,15.51
2018-06-04T04:27:48.317Z,15.59
2018-06-04T04:28:48.428Z,15.66
2018-06-04T04:29:48.625Z,15.72
2018-06-04T04:30:48.792Z,15.76
2018-06-04T04:31:48.964Z,15.72
2018-06-04T04:32:49.129Z,15.78
2018-06-04T04:33:49.316Z,15.77
2018-06-04T04:34:49.503Z,15.77
2018-06-04T04:35:49.709Z,15.77
2018-06-04T04:36:49.874Z,15.77
2018-06-04T04:37:50.090Z,15.68
2018-06-04T04:38:50.252Z,15.68
2018-06-04T04:39:50.428Z,15.73
2018-06-04T04:40:50.590Z,15.70
2018-06-04T04:41:50.786Z,15.73
2018-06-04T04:42:50.949Z,15.91
2018-06-04T04:43:51.133Z,16.08
2018-06-04T04:44:51.323Z,16.52
2018-06-04T04:45:51.511Z,16.58
2018-06-04T04:46:51.696Z,16.91
2018-06-04T04:47:51.877Z,17.24
2018-06-04T04:48:52.121Z,17.54
2018-06-04T04:49:52.286Z,17.94
2018-06-04T04:50:52.416Z,18.18
2018-06-04T04:51:52.617Z,18.45
2018-06-04T04:52:52.806Z,18.63
2018-06-04T04:53:53.061Z,18.79
2018-06-04T04:54:53.183Z,18.96
2018-06-04T04:55:53.356Z,19.30
2018-06-04T04:56:53.528Z,19.38
2018-06-04T04:57:53.729Z,19.39
2018-06-04T04:58:53.934Z,19.45
2018-06-04T04:59:54.068Z,19.56
2018-06-04T05:00:54.277Z,19.77
2018-06-04T05:01:54.443Z,19.97
2018-06-04T05:02:54.624Z,20.09
2018-06-04T05:03:54.835Z,19.97
2018-06-04T05:04:55.021Z,20.14
2018-06-04T05:05:55.256Z,20.37
2018-06-04T05:06:55.396Z,20.65
2018-06-04T05:07:55.569Z,20.64
2018-06-04T05:08:55.747Z,20.37
2018-06-04T05:09:55.952Z,20.65
2018-06-04T05:10:56.154Z,20.65
2018-06-04T05:11:56.362Z,20.97
2018-06-04T05:12:56.551Z,20.64
2018-06-04T05:13:56.756Z,20.89
2018-06-04T05:14:56.908Z,20.95
2018-06-04T05:15:57.097Z,21.20
2018-06-04T05:16:57.304Z,21.20
2018-06-04T05:17:57.490Z,21.22
2018-06-04T05:18:57.648Z,20.90
2018-06-04T05:19:57.862Z,20.92
2018-06-04T05:20:58.071Z,20.88
2018-06-04T05:21:58.236Z,21.03
2018-06-04T05:22:58.406Z,20.83
2018-06-04T05:23:58.624Z,20.85
2018-06-04T05:24:58.809Z,21.04
2018-06-04T05:25:58.974Z,21.22
2018-06-04T05:26:59.161Z,21.34
2018-06-04T05:27:59.380Z,21.71
2018-06-04T05:28:59.551Z,21.78
2018-06-04T05:29:59.770Z,21.77
2018-06-04T05:30:59.970Z,21.94
2018-06-04T05:32:00.115Z,21.96
2018-06-04T05:33:00.293Z,22.28
2018-06-04T05:34:00.523Z,22.33
2018-06-04T05:35:00.694Z,22.58
2018-06-04T05:36:00.877Z,22.62
2018-06-04T05:37:01.050Z,22.80
2018-06-04T05:38:01.268Z,22.92
2018-06-04T05:39:01.415Z,23.08
2018-06-04T05:40:01.662Z,23.33
2018-06-04T05:41:01.792Z,23.46
2018-06-04T05:42:02.023Z,23.71
2018-06-04T05:43:02.211Z,23.71
2018-06-04T05:44:02.407Z,23.48
2018-06-04T05:45:02.596Z,23.45
2018-06-04T05:46:02.804Z,23.49
2018-06-04T05:47:03.000Z,23.66
2018-06-04T05:48:03.190Z,22.67
2018-06-04T05:49:03.387Z,22.99
2018-06-04T05:50:03.618Z,23.03
2018-06-04T05:51:03.787Z,23.10
2018-06-04T05:52:03.980Z,22.93
2018-06-04T05:53:04.213Z,22.71
2018-06-04T05:54:04.372Z,22.68
2018-06-04T05:55:04.566Z,22.92
2018-06-04T05:56:04.747Z,22.98
2018-06-04T05:57:04.940Z,22.95
2018-06-04T05:58:05.145Z,23.03
2018-06-04T05:59:05.490Z,23.28
2018-06-04T06:00:05.555Z,23.11
2018-06-04T06:01:05.793Z,23.10
2018-06-04T06:02:05.976Z,23.04
2018-06-04T06:03:06.133Z,23.28
2018-06-04T06:04:06.299Z,23.18
2018-06-04T06:05:06.511Z,23.29
2018-06-04T06:06:06.692Z,23.10
2018-06-04T06:07:06.919Z,22.76
2018-06-04T06:08:07.070Z,23.04
2018-06-04T06:09:07.276Z,23.23
2018-06-04T06:10:07.485Z,22.92
2018-06-04T06:11:07.695Z,22.95
2018-06-04T06:12:07.869Z,22.96
2018-06-04T06:13:08.048Z,23.03
2018-06-04T06:14:08.267Z,22.92
2018-06-04T06:15:08.431Z,23.10
2018-06-04T06:16:08.677Z,23.28
2018-06-04T06:17:08.863Z,23.37
2018-06-04T06:18:09.000Z,22.93
2018-06-04T06:19:09.184Z,22.99
2018-06-04T06:20:09.368Z,22.71
2018-06-04T06:21:09.568Z,23.07
2018-06-04T06:22:09.758Z,23.13
2018-06-04T06:23:09.937Z,23.06
2018-06-04T06:24:10.120Z,23.15
2018-06-04T06:25:10.344Z,23.06
2018-06-04T06:26:10.508Z,23.06
2018-06-04T06:27:10.713Z,23.13
2018-06-04T06:28:10.897Z,23.14
2018-06-04T06:29:11.084Z,23.23
2018-06-04T06:30:11.295Z,23.23
2018-06-04T06:31:11.457Z,23.13
2018-06-04T06:32:11.694Z,23.10
2018-06-04T06:33:11.832Z,22.85
2018-06-04T06:34:12.047Z,22.71
2018-06-04T06:35:12.229Z,22.62
2018-06-04T06:36:12.418Z,22.44
2018-06-04T06:37:12.640Z,22.46
2018-06-04T06:38:12.812Z,22.61
2018-06-04T06:39:13.001Z,22.67
2018-06-04T06:40:13.205Z,22.55
2018-06-04T06:41:13.404Z,22.58
2018-06-04T06:42:13.621Z,22.62
2018-06-04T06:43:13.822Z,22.70
2018-06-04T06:44:14.065Z,22.78
2018-06-04T06:45:14.182Z,22.89
2018-06-04T06:46:14.360Z,22.77
2018-06-04T06:47:14.574Z,23.14
2018-06-04T06:48:14.776Z,23.13
2018-06-04T06:49:14.928Z,23.07
2018-06-04T06:50:15.130Z,23.07
2018-06-04T06:51:15.323Z,23.21
2018-06-04T06:52:15.543Z,23.26
2018-06-04T06:53:15.721Z,23.42
2018-06-04T06:54:15.900Z,23.45
2018-06-04T06:55:16.098Z,23.59
2018-06-04T06:56:16.290Z,23.60
2018-06-04T06:57:16.473Z,23.48
2018-06-04T06:58:16.744Z,23.61
2018-06-04T06:59:16.843Z,23.56
2018-06-04T07:00:17.061Z,23.52
2018-06-04T07:01:17.237Z,23.60
2018-06-04T07:02:17.412Z,23.60
2018-06-04T07:03:17.614Z,23.67
2018-06-04T07:04:17.824Z,23.76
2018-06-04T07:05:17.994Z,23.81
2018-06-04T07:06:18.152Z,23.92
2018-06-04T07:07:18.397Z,23.81
2018-06-04T07:08:18.530Z,23.81
2018-06-04T07:09:18.739Z,23.82
2018-06-04T07:10:18.944Z,23.96
2018-06-04T07:11:19.102Z,24.11
2018-06-04T07:12:19.298Z,24.10
2018-06-04T07:13:19.483Z,24.26
2018-06-04T07:14:19.730Z,24.34
2018-06-04T07:15:19.910Z,24.47
2018-06-04T07:16:20.097Z,24.43
2018-06-04T07:17:20.247Z,24.33
2018-06-04T07:18:20.421Z,24.56
2018-06-04T07:19:20.713Z,24.55
2018-06-04T07:20:20.829Z,24.56
2018-06-04T07:21:21.009Z,24.56
2018-06-04T07:22:21.203Z,24.58
2018-06-04T07:23:21.400Z,24.43
2018-06-04T07:24:21.575Z,24.38
2018-06-04T07:25:21.763Z,24.36
2018-06-04T07:26:21.953Z,24.47
2018-06-04T07:27:22.166Z,24.21
2018-06-04T07:28:22.346Z,24.26
2018-06-04T07:29:22.529Z,24.48
2018-06-04T07:30:22.727Z,24.47
2018-06-04T07:31:22.971Z,24.58
2018-06-04T07:32:23.120Z,24.63
2018-06-04T07:33:23.314Z,24.85
2018-06-04T07:34:23.481Z,25.06
2018-06-04T07:35:23.678Z,25.34
2018-06-04T07:36:23.910Z,25.67
2018-06-04T07:37:24.121Z,25.63
2018-06-04T07:38:24.287Z,25.67
2018-06-04T07:39:24.520Z,25.95
2018-06-04T07:40:24.633Z,26.05
2018-06-04T07:41:24.832Z,26.23
2018-06-04T07:42:25.029Z,26.03
2018-06-04T07:43:25.222Z,25.75
2018-06-04T07:44:25.410Z,25.28
2018-06-04T07:45:25.595Z,25.51
2018-06-04T07:46:25.782Z,25.37
2018-06-04T07:47:25.962Z,25.03
2018-06-04T07:48:26.163Z,25.23
2018-06-04T07:49:26.359Z,25.77
2018-06-04T07:50:26.555Z,25.92
2018-06-04T07:51:26.753Z,26.08
2018-06-04T07:52:26.947Z,25.83
2018-06-04T07:53:27.163Z,25.98
2018-06-04T07:54:27.368Z,26.11
2018-06-04T07:55:27.572Z,26.03
2018-06-04T07:56:27.747Z,26.01
2018-06-04T07:57:27.946Z,26.24
2018-06-04T07:58:28.154Z,26.27
2018-06-04T07:59:28.369Z,25.92
2018-06-04T08:00:28.570Z,25.95
2018-06-04T08:01:28.799Z,26.07
2018-06-04T08:02:28.994Z,26.23
2018-06-04T08:03:29.196Z,26.08
2018-06-04T08:04:29.449Z,26.52
2018-06-04T08:05:29.593Z,26.20
2018-06-04T08:06:29.864Z,26.11
2018-06-04T08:07:29.999Z,26.24
2018-06-04T08:08:30.181Z,26.43
2018-06-04T08:09:30.374Z,26.51
2018-06-04T08:10:30.564Z,26.36
2018-06-04T08:11:30.765Z,26.51
2018-06-04T08:12:30.978Z,26.57
2018-06-04T08:13:31.165Z,26.63
2018-06-04T08:14:31.335Z,26.63
2018-06-04T08:15:31.539Z,26.71
2018-06-04T08:16:31.733Z,26.61
2018-06-04T08:17:31.949Z,26.68
2018-06-04T08:18:32.118Z,26.68
2018-06-04T08:19:32.311Z,26.68
2018-06-04T08:20:32.506Z,26.80
2018-06-04T08:21:32.708Z,26.71
2018-06-04T08:22:32.900Z,26.88
2018-06-04T08:23:33.138Z,27.01
2018-06-04T08:24:33.357Z,27.13
2018-06-04T08:25:33.556Z,27.15
2018-06-04T08:26:33.751Z,26.68
2018-06-04T08:27:34.065Z,26.65
2018-06-04T08:28:34.167Z,26.61
2018-06-04T08:29:34.360Z,26.75
2018-06-04T08:30:34.579Z,26.73
2018-06-04T08:31:34.751Z,26.93
2018-06-04T08:32:34.967Z,26.94
2018-06-04T08:33:35.151Z,27.15
2018-06-04T08:34:35.353Z,26.76
2018-06-04T08:35:35.670Z,26.73
2018-06-04T08:36:36.876Z,26.86
2018-06-04T08:37:36.033Z,26.86
2018-06-04T08:38:36.222Z,26.82
2018-06-04T08:39:36.413Z,26.80
2018-06-04T08:40:36.602Z,27.10
2018-06-04T08:41:36.835Z,26.94
2018-06-04T08:42:37.052Z,26.93
2018-06-04T08:43:37.189Z,27.17
2018-06-04T08:44:37.378Z,27.20
2018-06-04T08:45:37.600Z,27.17
2018-06-04T08:46:37.773Z,27.13
2018-06-04T08:47:37.974Z,27.19
2018-06-04T08:48:38.186Z,27.25
2018-06-04T08:49:38.376Z,26.94
2018-06-04T08:50:38.587Z,26.68
2018-06-04T08:51:38.769Z,26.67
2018-06-04T08:52:38.968Z,26.85
2018-06-04T08:53:39.176Z,26.71
2018-06-04T08:54:39.358Z,26.79
2018-06-04T08:55:40.229Z,26.86
2018-06-04T08:56:39.709Z,26.90
2018-06-04T08:57:39.929Z,26.93
2018-06-04T08:58:40.133Z,26.95
2018-06-04T08:59:40.311Z,26.65
2018-06-04T09:00:40.517Z,26.27
2018-06-04T09:01:40.821Z,26.05
2018-06-04T09:02:40.910Z,25.67
2018-06-04T09:03:41.085Z,25.64
2018-06-04T09:04:41.283Z,25.89
2018-06-04T09:05:41.478Z,26.19
2018-06-04T09:06:41.667Z,26.16
2018-06-04T09:07:41.862Z,26.42
2018-06-04T09:08:42.058Z,26.27
2018-06-04T09:09:42.253Z,26.05
2018-06-04T09:10:42.461Z,26.01
2018-06-04T09:11:42.639Z,26.00
2018-06-04T09:12:42.894Z,26.23
2018-06-04T09:13:43.092Z,26.30
2018-06-04T09:14:43.264Z,25.86
2018-06-04T09:15:43.428Z,25.95
2018-06-04T09:16:43.581Z,25.83
2018-06-04T09:17:43.788Z,26.04
2018-06-04T09:18:43.977Z,26.15
2018-06-04T09:19:44.179Z,26.28
2018-06-04T09:20:44.375Z,26.51
2018-06-04T09:21:44.604Z,26.68
2018-06-04T09:22:44.764Z,26.67
2018-06-04T09:23:44.961Z,26.76
2018-06-04T09:24:45.777Z,26.89
2018-06-04T09:25:45.316Z,26.89
2018-06-04T09:26:45.473Z,26.79
2018-06-04T09:27:45.674Z,26.90
2018-06-04T09:28:45.895Z,26.97
2018-06-04T09:29:46.105Z,26.95
2018-06-04T09:30:46.301Z,26.94
2018-06-04T09:31:46.499Z,26.78
2018-06-04T09:32:46.665Z,26.95
2018-06-04T09:33:47.671Z,27.03
2018-06-04T09:34:47.120Z,26.78
2018-06-04T09:35:47.351Z,26.65
2018-06-04T09:36:47.725Z,26.23
2018-06-04T09:37:47.727Z,26.11
2018-06-04T09:38:48.003Z,26.12
2018-06-04T09:39:48.131Z,26.04
2018-06-04T09:40:48.264Z,26.21
2018-06-04T09:41:48.472Z,26.23
2018-06-04T09:42:48.705Z,26.51
2018-06-04T09:43:48.854Z,26.70
2018-06-04T09:44:49.027Z,26.39
2018-06-04T09:45:49.278Z,26.24
2018-06-04T09:46:49.456Z,26.28
2018-06-04T09:47:49.615Z,26.46
2018-06-04T09:48:49.815Z,26.51
2018-06-04T09:49:50.041Z,26.73
2018-06-04T09:50:50.207Z,26.83
2018-06-04T09:51:50.382Z,26.71
2018-06-04T09:52:50.570Z,26.46
2018-06-04T09:53:50.824Z,26.41
2018-06-04T09:54:50.935Z,26.67
2018-06-04T09:55:51.151Z,26.94
2018-06-04T09:56:51.335Z,27.07
2018-06-04T09:57:51.526Z,27.19
2018-06-04T09:58:51.714Z,27.45
2018-06-04T09:59:51.914Z,27.50
2018-06-04T10:00:52.109Z,27.32
2018-06-04T10:01:52.300Z,27.34
2018-06-04T10:02:52.491Z,27.22
2018-06-04T10:03:52.669Z,27.31
2018-06-04T10:04:52.939Z,27.44
2018-06-04T10:05:53.101Z,27.40
2018-06-04T10:06:53.258Z,27.35
2018-06-04T10:07:53.460Z,27.66
2018-06-04T10:08:53.701Z,27.49
2018-06-04T10:09:53.848Z,27.40
2018-06-04T10:10:54.074Z,27.70
2018-06-04T10:11:54.225Z,27.53
2018-06-04T10:12:54.398Z,27.30
2018-06-04T10:13:54.584Z,27.40
2018-06-04T10:14:54.816Z,27.34
2018-06-04T10:15:54.988Z,27.17
2018-06-04T10:16:55.161Z,27.25
2018-06-04T10:17:55.353Z,27.15
2018-06-04T10:18:55.554Z,27.37
2018-06-04T10:19:55.763Z,27.17
2018-06-04T10:20:56.052Z,27.32
2018-06-04T10:21:56.139Z,27.20
2018-06-04T10:22:56.323Z,27.10
2018-06-04T10:23:56.492Z,26.95
2018-06-04T10:24:56.684Z,26.95
2018-06-04T10:25:56.943Z,26.98
2018-06-04T10:26:57.077Z,27.07
2018-06-04T10:27:57.356Z,27.05
2018-06-04T10:28:57.454Z,27.08
2018-06-04T10:29:57.660Z,27.04
2018-06-04T10:30:57.860Z,27.35
2018-06-04T10:31:58.070Z,27.34
2018-06-04T10:32:58.197Z,27.15
2018-06-04T10:33:59.153Z,27.34
2018-06-04T10:34:58.597Z,27.53
2018-06-04T10:35:58.802Z,27.38
2018-06-04T10:36:58.954Z,27.40
2018-06-04T10:37:59.146Z,27.31
2018-06-04T10:38:59.343Z,27.34
2018-06-04T10:39:59.542Z,27.34
2018-06-04T10:40:59.727Z,27.19
2018-06-04T10:41:59.947Z,27.27
2018-06-04T10:43:00.114Z,27.38
2018-06-04T10:44:00.302Z,27.49
2018-06-04T10:45:00.467Z,27.60
2018-06-04T10:46:00.660Z,27.68
2018-06-04T10:47:00.845Z,27.66
2018-06-04T10:48:01.063Z,27.58
2018-06-04T10:49:01.235Z,27.80
2018-06-04T10:50:01.440Z,27.94
2018-06-04T10:51:01.609Z,27.94
2018-06-04T10:52:01.797Z,28.15
2018-06-04T10:53:01.969Z,28.24
2018-06-04T10:54:02.165Z,28.27
2018-06-04T10:55:02.361Z,28.19
2018-06-04T10:56:02.577Z,28.00
2018-06-04T10:57:02.734Z,27.82
2018-06-04T10:58:02.944Z,27.78
2018-06-04T10:59:03.143Z,27.88
2018-06-04T11:00:03.358Z,27.87
2018-06-04T11:01:03.521Z,27.95
2018-06-04T11:02:03.684Z,27.88
2018-06-04T11:03:03.905Z,27.98
2018-06-04T11:04:04.082Z,28.06
2018-06-04T11:05:04.317Z,28.09
2018-06-04T11:06:04.438Z,28.07
2018-06-04T11:07:05.177Z,27.98
2018-06-04T11:08:04.778Z,28.03
2018-06-04T11:09:05.010Z,27.91
2018-06-04T11:10:05.200Z,28.01
2018-06-04T11:11:05.359Z,27.93
2018-06-04T11:12:05.522Z,27.83
2018-06-04T11:13:05.725Z,27.68
2018-06-04T11:14:05.876Z,27.78
2018-06-04T11:15:06.064Z,27.58
2018-06-04T11:16:06.249Z,27.40
2018-06-04T11:17:06.438Z,27.50
2018-06-04T11:18:06.675Z,27.54
2018-06-04T11:19:06.918Z,27.40
2018-06-04T11:20:07.025Z,27.27
2018-06-04T11:21:07.207Z,27.40
2018-06-04T11:22:07.399Z,27.52
2018-06-04T11:23:07.621Z,27.63
2018-06-04T11:24:07.782Z,27.63
2018-06-04T11:25:07.969Z,27.35
2018-06-04T11:26:08.202Z,27.31
2018-06-04T11:27:08.357Z,27.45
2018-06-04T11:28:08.580Z,27.60
2018-06-04T11:29:08.783Z,27.69
2018-06-04T11:30:08.948Z,27.73
2018-06-04T11:31:09.131Z,27.63
2018-06-04T11:32:09.340Z,27.66
2018-06-04T11:33:09.559Z,27.76
2018-06-04T11:34:09.773Z,27.83
2018-06-04T11:35:09.890Z,27.98
2018-06-04T11:36:10.077Z,28.03
2018-06-04T11:37:10.262Z,28.27
2018-06-04T11:38:10.465Z,28.13
2018-06-04T11:39:10.637Z,28.03
2018-06-04T11:40:10.826Z,27.87
2018-06-04T11:41:11.033Z,27.82
2018-06-04T11:42:11.228Z,27.93
2018-06-04T11:43:11.403Z,28.00
2018-06-04T11:44:11.595Z,28.15
2018-06-04T11:45:11.806Z,28.15
2018-06-04T11:46:11.967Z,28.25
2018-06-04T11:47:12.165Z,28.27
2018-06-04T11:48:12.387Z,28.24
2018-06-04T11:49:12.586Z,28.25
2018-06-04T11:50:12.777Z,28.28
2018-06-04T11:51:13.082Z,28.25
2018-06-04T11:52:13.146Z,28.13
2018-06-04T11:53:13.324Z,28.15
2018-06-04T11:54:13.518Z,28.07
2018-06-04T11:55:13.741Z,28.03
2018-06-04T11:56:13.894Z,27.90
2018-06-04T11:57:14.074Z,27.93
2018-06-04T11:58:14.289Z,28.06
2018-06-04T11:59:14.453Z,28.07
2018-06-04T12:00:14.650Z,28.20
2018-06-04T12:01:14.834Z,28.15
2018-06-04T12:02:15.046Z,28.16
2018-06-04T12:03:15.240Z,28.32
2018-06-04T12:04:15.428Z,28.38
2018-06-04T12:05:15.626Z,28.27
2018-06-04T12:06:15.837Z,27.97
2018-06-04T12:07:16.017Z,28.09
2018-06-04T12:08:16.230Z,28.16
2018-06-04T12:09:16.444Z,28.01
2018-06-04T12:10:16.633Z,28.13
2018-06-04T12:11:16.807Z,28.19
2018-06-04T12:12:17.051Z,28.25
2018-06-04T12:13:17.180Z,28.12
2018-06-04T12:14:17.390Z,28.17
2018-06-04T12:15:17.573Z,28.12
2018-06-04T12:16:17.779Z,28.13
2018-06-04T12:17:17.981Z,28.20
2018-06-04T12:18:18.180Z,28.22
2018-06-04T12:19:18.329Z,28.38
2018-06-04T12:20:18.522Z,28.42
2018-06-04T12:21:18.783Z,28.09
2018-06-04T12:22:18.923Z,27.57
2018-06-04T12:23:19.090Z,27.68
2018-06-04T12:24:19.264Z,27.90
2018-06-04T12:25:19.471Z,28.06
2018-06-04T12:26:19.661Z,28.05
2018-06-04T12:27:19.843Z,27.98
2018-06-04T12:28:20.052Z,27.90
2018-06-04T12:29:20.264Z,28.01
2018-06-04T12:30:20.460Z,27.88
2018-06-04T12:31:20.638Z,27.94
2018-06-04T12:32:20.810Z,27.76
2018-06-04T12:33:20.998Z,27.76
2018-06-04T12:34:21.199Z,27.73
2018-06-04T12:35:21.393Z,27.85
2018-06-04T12:36:21.592Z,27.82
2018-06-04T12:37:21.799Z,28.01
2018-06-04T12:38:22.013Z,28.20
2018-06-04T12:39:22.186Z,28.32
2018-06-04T12:40:22.356Z,28.37
2018-06-04T12:41:22.549Z,28.40
2018-06-04T12:42:22.765Z,28.20
2018-06-04T12:43:22.933Z,28.03
2018-06-04T12:44:23.145Z,27.80
2018-06-04T12:45:23.326Z,27.87
2018-06-04T12:46:23.511Z,27.98
2018-06-04T12:47:23.698Z,28.09
2018-06-04T12:48:23.895Z,28.15
2018-06-04T12:49:24.107Z,28.31
2018-06-04T12:50:24.274Z,28.42
2018-06-04T12:51:24.464Z,28.24
2018-06-04T12:52:24.678Z,28.01
2018-06-04T12:53:25.701Z,28.05
2018-06-04T12:54:25.020Z,28.07
2018-06-04T12:55:25.224Z,28.13